sensor_id;sensor_type;location;lat;lon;timestamp;P1;P2;P0
71858;PMS5003;59713;50.866;4.324;2023-05-07T00:00:19;9;8;
71858;PMS5003;59713;50.866;4.324;2023-05-07T00:01:19;9;8;
71858;PMS5003;59713;50.866;4.324;2023-05-07T00:02:19;7;7;
71858;PMS5003;59713;50.866;4.324;2023-05-07T00:03:19;7;7;
71858;PMS5003;59713;50.866;4.324;2023-05-07T00:04:19;7;7;
71858;PMS5003;59713;50.866;4.324;2023-05-07T00:05:19;8;8;
71858;PMS5003;59713;50.866;4.324;2023-05-07T00:06:19;8;8;
71858;PMS5003;59713;50.866;4.324;2023-05-07T00:07:19;8;8;
71858;PMS5003;59713;50.866;4.324;2023-05-07T00:07:19;8;8;
71858;PMS5003;59713;50.866;4.324;2023-05-07T00:08:19;8;6;
71858;PMS5003;59713;50.866;4.324;2023-05-07T00:09:19;8;6;
71858;PMS5003;59713;50.866;4.324;2023-05-07T00:10:19;8;6;
71858;PMS5003;59713;50.866;4.324;2023-05-07T00:11:19;6;6;
71858;PMS5003;59713;50.866;4.324;2023-05-07T00:12:19;6;6;
71858;PMS5003;59713;50.866;4.324;2023-05-07T00:13:19;6;6;
71858;PMS5003;59713;50.866;4.324;2023-05-07T00:14:19;5;5;
71858;PMS5003;59713;50.866;4.324;2023-05-07T00:15:19;5;5;
71858;PMS5003;59713;50.866;4.324;2023-05-07T00:16:19;5;5;
71858;PMS5003;59713;50.866;4.324;2023-05-07T00:16:19;5;5;
71858;PMS5003;59713;50.866;4.324;2023-05-07T00:17:19;7;7;
71858;PMS5003;59713;50.866;4.324;2023-05-07T00:18:19;7;7;
71858;PMS5003;59713;50.866;4.324;2023-05-07T00:19:19;7;7;
71858;PMS5003;59713;50.866;4.324;2023-05-07T00:20:19;9;8;
71858;PMS5003;59713;50.866;4.324;2023-05-07T00:21:19;9;8;
71858;PMS5003;59713;50.866;4.324;2023-05-07T00:22:19;9;8;
71858;PMS5003;59713;50.866;4.324;2023-05-07T00:23:19;6;6;
71858;PMS5003;59713;50.866;4.324;2023-05-07T00:24:19;6;6;
71858;PMS5003;59713;50.866;4.324;2023-05-07T00:25:19;6;6;
71858;PMS5003;59713;50.866;4.324;2023-05-07T00:25:19;6;6;
71858;PMS5003;59713;50.866;4.324;2023-05-07T00:26:19;8;6;
71858;PMS5003;59713;50.866;4.324;2023-05-07T00:27:19;8;6;
71858;PMS5003;59713;50.866;4.324;2023-05-07T00:28:19;8;6;
71858;PMS5003;59713;50.866;4.324;2023-05-07T00:29:19;8;4;
71858;PMS5003;59713;50.866;4.324;2023-05-07T00:30:19;8;4;
71858;PMS5003;59713;50.866;4.324;2023-05-07T00:31:19;8;4;
71858;PMS5003;59713;50.866;4.324;2023-05-07T00:32:19;6;5;
71858;PMS5003;59713;50.866;4.324;2023-05-07T00:33:19;6;5;
71858;PMS5003;59713;50.866;4.324;2023-05-07T00:34:19;6;5;
71858;PMS5003;59713;50.866;4.324;2023-05-07T00:34:19;6;5;
71858;PMS5003;59713;50.866;4.324;2023-05-07T00:35:19;5;5;
71858;PMS5003;59713;50.866;4.324;2023-05-07T00:36:19;5;5;
71858;PMS5003;59713;50.866;4.324;2023-05-07T00:37:19;5;5;
71858;PMS5003;59713;50.866;4.324;2023-05-07T00:38:19;5;5;
71858;PMS5003;59713;50.866;4.324;2023-05-07T00:39:19;5;5;
71858;PMS5003;59713;50.866;4.324;2023-05-07T00:40:19;5;5;
71858;PMS5003;59713;50.866;4.324;2023-05-07T00:41:19;5;5;
71858;PMS5003;59713;50.866;4.324;2023-05-07T00:42:19;5;5;
71858;PMS5003;59713;50.866;4.324;2023-05-07T00:43:19;5;5;
71858;PMS5003;59713;50.866;4.324;2023-05-07T00:43:19;5;5;
71858;PMS5003;59713;50.866;4.324;2023-05-07T00:44:19;6;6;
71858;PMS5003;59713;50.866;4.324;2023-05-07T00:45:19;6;6;
71858;PMS5003;59713;50.866;4.324;2023-05-07T00:46:19;6;6;
71858;PMS5003;59713;50.866;4.324;2023-05-07T00:47:19;9;8;
71858;PMS5003;59713;50.866;4.324;2023-05-07T00:48:19;9;8;
71858;PMS5003;59713;50.866;4.324;2023-05-07T00:49:19;9;8;
71858;PMS5003;59713;50.866;4.324;2023-05-07T00:50:19;6;6;
71858;PMS5003;59713;50.866;4.324;2023-05-07T00:51:19;6;6;
71858;PMS5003;59713;50.866;4.324;2023-05-07T00:52:19;6;6;
71858;PMS5003;59713;50.866;4.324;2023-05-07T00:52:19;6;6;
71858;PMS5003;59713;50.866;4.324;2023-05-07T00:53:19;6;5;
71858;PMS5003;59713;50.866;4.324;2023-05-07T00:54:19;6;5;
71858;PMS5003;59713;50.866;4.324;2023-05-07T00:55:21;6;5;
71858;PMS5003;59713;50.866;4.324;2023-05-07T00:56:20;6;6;
71858;PMS5003;59713;50.866;4.324;2023-05-07T00:57:19;6;6;
71858;PMS5003;59713;50.866;4.324;2023-05-07T00:58:19;6;6;
71858;PMS5003;59713;50.866;4.324;2023-05-07T00:59:19;4;4;
71858;PMS5003;59713;50.866;4.324;2023-05-07T01:00:19;4;4;
71858;PMS5003;59713;50.866;4.324;2023-05-07T01:01:19;4;4;
71858;PMS5003;59713;50.866;4.324;2023-05-07T01:01:19;4;4;
71858;PMS5003;59713;50.866;4.324;2023-05-07T01:02:19;4;4;
71858;PMS5003;59713;50.866;4.324;2023-05-07T01:03:19;4;4;
71858;PMS5003;59713;50.866;4.324;2023-05-07T01:04:19;4;4;
71858;PMS5003;59713;50.866;4.324;2023-05-07T01:05:19;8;6;
71858;PMS5003;59713;50.866;4.324;2023-05-07T01:06:19;8;6;
71858;PMS5003;59713;50.866;4.324;2023-05-07T01:07:19;8;6;
71858;PMS5003;59713;50.866;4.324;2023-05-07T01:08:19;4;4;
71858;PMS5003;59713;50.866;4.324;2023-05-07T01:09:19;4;4;
71858;PMS5003;59713;50.866;4.324;2023-05-07T01:10:19;4;4;
71858;PMS5003;59713;50.866;4.324;2023-05-07T01:10:19;4;4;
71858;PMS5003;59713;50.866;4.324;2023-05-07T01:11:19;3;3;
71858;PMS5003;59713;50.866;4.324;2023-05-07T01:12:19;3;3;
71858;PMS5003;59713;50.866;4.324;2023-05-07T01:13:19;3;3;
71858;PMS5003;59713;50.866;4.324;2023-05-07T01:14:19;6;4;
71858;PMS5003;59713;50.866;4.324;2023-05-07T01:15:19;6;4;
71858;PMS5003;59713;50.866;4.324;2023-05-07T01:16:19;6;4;
71858;PMS5003;59713;50.866;4.324;2023-05-07T01:17:19;7;6;
71858;PMS5003;59713;50.866;4.324;2023-05-07T01:18:19;7;6;
71858;PMS5003;59713;50.866;4.324;2023-05-07T01:19:19;7;6;
71858;PMS5003;59713;50.866;4.324;2023-05-07T01:19:19;7;6;
71858;PMS5003;59713;50.866;4.324;2023-05-07T01:20:19;8;5;
71858;PMS5003;59713;50.866;4.324;2023-05-07T01:21:19;8;5;
71858;PMS5003;59713;50.866;4.324;2023-05-07T01:22:24;8;5;
71858;PMS5003;59713;50.866;4.324;2023-05-07T01:23:19;6;5;
71858;PMS5003;59713;50.866;4.324;2023-05-07T01:24:19;6;5;
71858;PMS5003;59713;50.866;4.324;2023-05-07T01:25:19;6;5;
71858;PMS5003;59713;50.866;4.324;2023-05-07T01:26:19;5;3;
71858;PMS5003;59713;50.866;4.324;2023-05-07T01:27:19;5;3;
71858;PMS5003;59713;50.866;4.324;2023-05-07T01:28:19;5;3;
71858;PMS5003;59713;50.866;4.324;2023-05-07T01:28:19;5;3;
71858;PMS5003;59713;50.866;4.324;2023-05-07T01:29:19;12;9;
71858;PMS5003;59713;50.866;4.324;2023-05-07T01:30:20;12;9;
71858;PMS5003;59713;50.866;4.324;2023-05-07T01:31:19;12;9;
71858;PMS5003;59713;50.866;4.324;2023-05-07T01:32:21;8;7;
71858;PMS5003;59713;50.866;4.324;2023-05-07T01:33:20;8;7;
71858;PMS5003;59713;50.866;4.324;2023-05-07T01:34:19;8;7;
71858;PMS5003;59713;50.866;4.324;2023-05-07T01:35:19;5;5;
71858;PMS5003;59713;50.866;4.324;2023-05-07T01:36:19;5;5;
71858;PMS5003;59713;50.866;4.324;2023-05-07T01:37:19;5;5;
71858;PMS5003;59713;50.866;4.324;2023-05-07T01:37:19;5;5;
71858;PMS5003;59713;50.866;4.324;2023-05-07T01:38:19;6;5;
71858;PMS5003;59713;50.866;4.324;2023-05-07T01:39:19;6;5;
71858;PMS5003;59713;50.866;4.324;2023-05-07T01:40:19;6;5;
71858;PMS5003;59713;50.866;4.324;2023-05-07T01:41:19;7;7;
71858;PMS5003;59713;50.866;4.324;2023-05-07T01:42:19;7;7;
71858;PMS5003;59713;50.866;4.324;2023-05-07T01:43:19;7;7;
71858;PMS5003;59713;50.866;4.324;2023-05-07T01:44:19;9;7;
71858;PMS5003;59713;50.866;4.324;2023-05-07T01:45:19;9;7;
71858;PMS5003;59713;50.866;4.324;2023-05-07T01:46:19;9;7;
71858;PMS5003;59713;50.866;4.324;2023-05-07T01:46:19;9;7;
71858;PMS5003;59713;50.866;4.324;2023-05-07T01:47:19;14;8;
71858;PMS5003;59713;50.866;4.324;2023-05-07T01:48:19;14;8;
71858;PMS5003;59713;50.866;4.324;2023-05-07T01:49:19;14;8;
71858;PMS5003;59713;50.866;4.324;2023-05-07T01:50:19;8;7;
71858;PMS5003;59713;50.866;4.324;2023-05-07T01:51:19;8;7;
71858;PMS5003;59713;50.866;4.324;2023-05-07T01:52:19;8;7;
71858;PMS5003;59713;50.866;4.324;2023-05-07T01:53:19;6;6;
71858;PMS5003;59713;50.866;4.324;2023-05-07T01:54:19;6;6;
71858;PMS5003;59713;50.866;4.324;2023-05-07T01:55:19;6;6;
71858;PMS5003;59713;50.866;4.324;2023-05-07T01:55:19;6;6;
71858;PMS5003;59713;50.866;4.324;2023-05-07T01:56:19;10;9;
71858;PMS5003;59713;50.866;4.324;2023-05-07T01:57:19;10;9;
71858;PMS5003;59713;50.866;4.324;2023-05-07T01:58:19;10;9;
71858;PMS5003;59713;50.866;4.324;2023-05-07T01:59:19;6;6;
71858;PMS5003;59713;50.866;4.324;2023-05-07T02:00:19;6;6;
71858;PMS5003;59713;50.866;4.324;2023-05-07T02:01:19;6;6;
71858;PMS5003;59713;50.866;4.324;2023-05-07T02:02:19;10;7;
71858;PMS5003;59713;50.866;4.324;2023-05-07T02:03:19;10;7;
71858;PMS5003;59713;50.866;4.324;2023-05-07T02:04:19;10;7;
71858;PMS5003;59713;50.866;4.324;2023-05-07T02:04:19;10;7;
71858;PMS5003;59713;50.866;4.324;2023-05-07T02:05:19;8;6;
71858;PMS5003;59713;50.866;4.324;2023-05-07T02:06:19;8;6;
71858;PMS5003;59713;50.866;4.324;2023-05-07T02:07:19;8;6;
71858;PMS5003;59713;50.866;4.324;2023-05-07T02:08:19;8;7;
71858;PMS5003;59713;50.866;4.324;2023-05-07T02:09:19;8;7;
71858;PMS5003;59713;50.866;4.324;2023-05-07T02:10:19;8;7;
71858;PMS5003;59713;50.866;4.324;2023-05-07T02:11:19;8;7;
71858;PMS5003;59713;50.866;4.324;2023-05-07T02:12:19;8;7;
71858;PMS5003;59713;50.866;4.324;2023-05-07T02:13:19;8;7;
71858;PMS5003;59713;50.866;4.324;2023-05-07T02:13:19;8;7;
71858;PMS5003;59713;50.866;4.324;2023-05-07T02:14:19;8;7;
71858;PMS5003;59713;50.866;4.324;2023-05-07T02:15:19;8;7;
71858;PMS5003;59713;50.866;4.324;2023-05-07T02:16:19;8;7;
71858;PMS5003;59713;50.866;4.324;2023-05-07T02:17:19;5;5;
71858;PMS5003;59713;50.866;4.324;2023-05-07T02:18:19;5;5;
71858;PMS5003;59713;50.866;4.324;2023-05-07T02:19:19;5;5;
71858;PMS5003;59713;50.866;4.324;2023-05-07T02:20:19;5;5;
71858;PMS5003;59713;50.866;4.324;2023-05-07T02:21:19;5;5;
71858;PMS5003;59713;50.866;4.324;2023-05-07T02:22:19;5;5;
71858;PMS5003;59713;50.866;4.324;2023-05-07T02:22:19;5;5;
71858;PMS5003;59713;50.866;4.324;2023-05-07T02:23:19;7;6;
71858;PMS5003;59713;50.866;4.324;2023-05-07T02:24:19;7;6;
71858;PMS5003;59713;50.866;4.324;2023-05-07T02:25:19;7;6;
71858;PMS5003;59713;50.866;4.324;2023-05-07T02:26:19;6;6;
71858;PMS5003;59713;50.866;4.324;2023-05-07T02:27:19;6;6;
71858;PMS5003;59713;50.866;4.324;2023-05-07T02:28:19;6;6;
71858;PMS5003;59713;50.866;4.324;2023-05-07T02:29:19;12;7;
71858;PMS5003;59713;50.866;4.324;2023-05-07T02:30:19;12;7;
71858;PMS5003;59713;50.866;4.324;2023-05-07T02:31:19;12;7;
71858;PMS5003;59713;50.866;4.324;2023-05-07T02:32:19;6;6;
71858;PMS5003;59713;50.866;4.324;2023-05-07T02:32:19;6;6;
71858;PMS5003;59713;50.866;4.324;2023-05-07T02:33:19;6;6;
71858;PMS5003;59713;50.866;4.324;2023-05-07T02:34:19;6;6;
71858;PMS5003;59713;50.866;4.324;2023-05-07T02:35:19;8;5;
71858;PMS5003;59713;50.866;4.324;2023-05-07T02:36:19;8;5;
71858;PMS5003;59713;50.866;4.324;2023-05-07T02:37:19;8;5;
71858;PMS5003;59713;50.866;4.324;2023-05-07T02:38:19;6;6;
71858;PMS5003;59713;50.866;4.324;2023-05-07T02:39:19;6;6;
71858;PMS5003;59713;50.866;4.324;2023-05-07T02:40:19;6;6;
71858;PMS5003;59713;50.866;4.324;2023-05-07T02:41:19;10;7;
71858;PMS5003;59713;50.866;4.324;2023-05-07T02:41:19;10;7;
71858;PMS5003;59713;50.866;4.324;2023-05-07T02:42:19;10;7;
71858;PMS5003;59713;50.866;4.324;2023-05-07T02:43:19;10;7;
71858;PMS5003;59713;50.866;4.324;2023-05-07T02:44:19;8;6;
71858;PMS5003;59713;50.866;4.324;2023-05-07T02:45:19;8;6;
71858;PMS5003;59713;50.866;4.324;2023-05-07T02:46:19;8;6;
71858;PMS5003;59713;50.866;4.324;2023-05-07T02:47:19;7;6;
71858;PMS5003;59713;50.866;4.324;2023-05-07T02:48:19;7;6;
71858;PMS5003;59713;50.866;4.324;2023-05-07T02:49:19;7;6;
71858;PMS5003;59713;50.866;4.324;2023-05-07T02:50:19;7;6;
71858;PMS5003;59713;50.866;4.324;2023-05-07T02:51:20;7;6;
71858;PMS5003;59713;50.866;4.324;2023-05-07T02:51:20;7;6;
71858;PMS5003;59713;50.866;4.324;2023-05-07T02:52:19;7;6;
71858;PMS5003;59713;50.866;4.324;2023-05-07T02:53:19;5;5;
71858;PMS5003;59713;50.866;4.324;2023-05-07T02:54:19;5;5;
71858;PMS5003;59713;50.866;4.324;2023-05-07T02:55:19;5;5;
71858;PMS5003;59713;50.866;4.324;2023-05-07T02:56:19;5;5;
71858;PMS5003;59713;50.866;4.324;2023-05-07T02:57:19;5;5;
71858;PMS5003;59713;50.866;4.324;2023-05-07T02:58:19;5;5;
71858;PMS5003;59713;50.866;4.324;2023-05-07T02:59:19;7;5;
71858;PMS5003;59713;50.866;4.324;2023-05-07T03:00:19;7;5;
71858;PMS5003;59713;50.866;4.324;2023-05-07T03:00:19;7;5;
71858;PMS5003;59713;50.866;4.324;2023-05-07T03:01:19;7;5;
71858;PMS5003;59713;50.866;4.324;2023-05-07T03:02:19;9;8;
71858;PMS5003;59713;50.866;4.324;2023-05-07T03:03:19;9;8;
71858;PMS5003;59713;50.866;4.324;2023-05-07T03:04:19;9;8;
71858;PMS5003;59713;50.866;4.324;2023-05-07T03:05:19;8;8;
71858;PMS5003;59713;50.866;4.324;2023-05-07T03:06:19;8;8;
71858;PMS5003;59713;50.866;4.324;2023-05-07T03:07:19;8;8;
71858;PMS5003;59713;50.866;4.324;2023-05-07T03:08:19;9;8;
71858;PMS5003;59713;50.866;4.324;2023-05-07T03:09:19;9;8;
71858;PMS5003;59713;50.866;4.324;2023-05-07T03:09:19;9;8;
71858;PMS5003;59713;50.866;4.324;2023-05-07T03:10:19;9;8;
71858;PMS5003;59713;50.866;4.324;2023-05-07T03:11:19;8;5;
71858;PMS5003;59713;50.866;4.324;2023-05-07T03:12:19;8;5;
71858;PMS5003;59713;50.866;4.324;2023-05-07T03:13:19;8;5;
71858;PMS5003;59713;50.866;4.324;2023-05-07T03:14:19;6;6;
71858;PMS5003;59713;50.866;4.324;2023-05-07T03:15:19;6;6;
71858;PMS5003;59713;50.866;4.324;2023-05-07T03:16:19;6;6;
71858;PMS5003;59713;50.866;4.324;2023-05-07T03:17:19;7;7;
71858;PMS5003;59713;50.866;4.324;2023-05-07T03:18:19;7;7;
71858;PMS5003;59713;50.866;4.324;2023-05-07T03:18:19;7;7;
71858;PMS5003;59713;50.866;4.324;2023-05-07T03:19:19;7;7;
71858;PMS5003;59713;50.866;4.324;2023-05-07T03:20:19;12;7;
71858;PMS5003;59713;50.866;4.324;2023-05-07T03:21:19;12;7;
71858;PMS5003;59713;50.866;4.324;2023-05-07T03:22:19;12;7;
71858;PMS5003;59713;50.866;4.324;2023-05-07T03:23:19;11;10;
71858;PMS5003;59713;50.866;4.324;2023-05-07T03:24:19;11;10;
71858;PMS5003;59713;50.866;4.324;2023-05-07T03:25:19;11;10;
71858;PMS5003;59713;50.866;4.324;2023-05-07T03:26:19;10;10;
71858;PMS5003;59713;50.866;4.324;2023-05-07T03:27:19;10;10;
71858;PMS5003;59713;50.866;4.324;2023-05-07T03:27:19;10;10;
71858;PMS5003;59713;50.866;4.324;2023-05-07T03:28:19;10;10;
71858;PMS5003;59713;50.866;4.324;2023-05-07T03:29:19;13;12;
71858;PMS5003;59713;50.866;4.324;2023-05-07T03:30:19;13;12;
71858;PMS5003;59713;50.866;4.324;2023-05-07T03:31:19;13;12;
71858;PMS5003;59713;50.866;4.324;2023-05-07T03:32:19;9;9;
71858;PMS5003;59713;50.866;4.324;2023-05-07T03:33:19;9;9;
71858;PMS5003;59713;50.866;4.324;2023-05-07T03:34:19;9;9;
71858;PMS5003;59713;50.866;4.324;2023-05-07T03:35:19;11;8;
71858;PMS5003;59713;50.866;4.324;2023-05-07T03:36:19;11;8;
71858;PMS5003;59713;50.866;4.324;2023-05-07T03:36:19;11;8;
71858;PMS5003;59713;50.866;4.324;2023-05-07T03:37:19;11;8;
71858;PMS5003;59713;50.866;4.324;2023-05-07T03:38:19;1;1;
71858;PMS5003;59713;50.866;4.324;2023-05-07T03:39:19;1;1;
71858;PMS5003;59713;50.866;4.324;2023-05-07T03:40:19;1;1;
71858;PMS5003;59713;50.866;4.324;2023-05-07T03:41:19;9;7;
71858;PMS5003;59713;50.866;4.324;2023-05-07T03:42:19;9;7;
71858;PMS5003;59713;50.866;4.324;2023-05-07T03:43:19;9;7;
71858;PMS5003;59713;50.866;4.324;2023-05-07T03:44:19;13;11;
71858;PMS5003;59713;50.866;4.324;2023-05-07T03:45:19;13;11;
71858;PMS5003;59713;50.866;4.324;2023-05-07T03:45:19;13;11;
71858;PMS5003;59713;50.866;4.324;2023-05-07T03:46:19;13;11;
71858;PMS5003;59713;50.866;4.324;2023-05-07T03:47:19;12;8;
71858;PMS5003;59713;50.866;4.324;2023-05-07T03:48:19;12;8;
71858;PMS5003;59713;50.866;4.324;2023-05-07T03:49:19;12;8;
71858;PMS5003;59713;50.866;4.324;2023-05-07T03:50:19;8;8;
71858;PMS5003;59713;50.866;4.324;2023-05-07T03:51:19;8;8;
71858;PMS5003;59713;50.866;4.324;2023-05-07T03:52:19;8;8;
71858;PMS5003;59713;50.866;4.324;2023-05-07T03:53:19;10;8;
71858;PMS5003;59713;50.866;4.324;2023-05-07T03:54:19;10;8;
71858;PMS5003;59713;50.866;4.324;2023-05-07T03:54:19;10;8;
71858;PMS5003;59713;50.866;4.324;2023-05-07T03:55:19;10;8;
71858;PMS5003;59713;50.866;4.324;2023-05-07T03:56:19;8;8;
71858;PMS5003;59713;50.866;4.324;2023-05-07T03:57:19;8;8;
71858;PMS5003;59713;50.866;4.324;2023-05-07T03:58:19;8;8;
71858;PMS5003;59713;50.866;4.324;2023-05-07T03:59:19;8;8;
71858;PMS5003;59713;50.866;4.324;2023-05-07T04:00:19;8;8;
71858;PMS5003;59713;50.866;4.324;2023-05-07T04:01:19;8;8;
71858;PMS5003;59713;50.866;4.324;2023-05-07T04:02:19;11;8;
71858;PMS5003;59713;50.866;4.324;2023-05-07T04:03:19;11;8;
71858;PMS5003;59713;50.866;4.324;2023-05-07T04:03:19;11;8;
71858;PMS5003;59713;50.866;4.324;2023-05-07T04:04:19;11;8;
71858;PMS5003;59713;50.866;4.324;2023-05-07T04:05:19;8;8;
71858;PMS5003;59713;50.866;4.324;2023-05-07T04:06:19;8;8;
71858;PMS5003;59713;50.866;4.324;2023-05-07T04:07:19;8;8;
71858;PMS5003;59713;50.866;4.324;2023-05-07T04:08:19;8;7;
71858;PMS5003;59713;50.866;4.324;2023-05-07T04:09:19;8;7;
71858;PMS5003;59713;50.866;4.324;2023-05-07T04:10:19;8;7;
71858;PMS5003;59713;50.866;4.324;2023-05-07T04:11:19;8;8;
71858;PMS5003;59713;50.866;4.324;2023-05-07T04:12:19;8;8;
71858;PMS5003;59713;50.866;4.324;2023-05-07T04:13:19;8;8;
71858;PMS5003;59713;50.866;4.324;2023-05-07T04:14:19;10;7;
71858;PMS5003;59713;50.866;4.324;2023-05-07T04:15:19;10;7;
71858;PMS5003;59713;50.866;4.324;2023-05-07T04:16:19;10;7;
71858;PMS5003;59713;50.866;4.324;2023-05-07T04:17:19;11;10;
71858;PMS5003;59713;50.866;4.324;2023-05-07T04:18:19;11;10;
71858;PMS5003;59713;50.866;4.324;2023-05-07T04:19:19;11;10;
71858;PMS5003;59713;50.866;4.324;2023-05-07T04:20:19;9;9;
71858;PMS5003;59713;50.866;4.324;2023-05-07T04:21:20;9;9;
71858;PMS5003;59713;50.866;4.324;2023-05-07T04:22:19;9;9;
71858;PMS5003;59713;50.866;4.324;2023-05-07T04:22:19;9;9;
71858;PMS5003;59713;50.866;4.324;2023-05-07T04:23:20;9;9;
71858;PMS5003;59713;50.866;4.324;2023-05-07T04:24:19;9;9;
71858;PMS5003;59713;50.866;4.324;2023-05-07T04:25:19;9;9;
71858;PMS5003;59713;50.866;4.324;2023-05-07T04:26:19;10;7;
71858;PMS5003;59713;50.866;4.324;2023-05-07T04:27:19;10;7;
71858;PMS5003;59713;50.866;4.324;2023-05-07T04:28:19;10;7;
71858;PMS5003;59713;50.866;4.324;2023-05-07T04:29:19;7;7;
71858;PMS5003;59713;50.866;4.324;2023-05-07T04:30:19;7;7;
71858;PMS5003;59713;50.866;4.324;2023-05-07T04:31:19;7;7;
71858;PMS5003;59713;50.866;4.324;2023-05-07T04:31:19;7;7;
71858;PMS5003;59713;50.866;4.324;2023-05-07T04:32:19;8;7;
71858;PMS5003;59713;50.866;4.324;2023-05-07T04:33:19;8;7;
71858;PMS5003;59713;50.866;4.324;2023-05-07T04:34:19;8;7;
71858;PMS5003;59713;50.866;4.324;2023-05-07T04:35:19;9;8;
71858;PMS5003;59713;50.866;4.324;2023-05-07T04:36:19;9;8;
71858;PMS5003;59713;50.866;4.324;2023-05-07T04:37:19;9;8;
71858;PMS5003;59713;50.866;4.324;2023-05-07T04:38:19;8;7;
71858;PMS5003;59713;50.866;4.324;2023-05-07T04:39:19;8;7;
71858;PMS5003;59713;50.866;4.324;2023-05-07T04:40:19;8;7;
71858;PMS5003;59713;50.866;4.324;2023-05-07T04:40:19;8;7;
71858;PMS5003;59713;50.866;4.324;2023-05-07T04:41:19;9;8;
71858;PMS5003;59713;50.866;4.324;2023-05-07T04:42:19;9;8;
71858;PMS5003;59713;50.866;4.324;2023-05-07T04:43:19;9;8;
71858;PMS5003;59713;50.866;4.324;2023-05-07T04:44:19;10;9;
71858;PMS5003;59713;50.866;4.324;2023-05-07T04:45:19;10;9;
71858;PMS5003;59713;50.866;4.324;2023-05-07T04:46:19;10;9;
71858;PMS5003;59713;50.866;4.324;2023-05-07T04:47:19;9;9;
71858;PMS5003;59713;50.866;4.324;2023-05-07T04:48:19;9;9;
71858;PMS5003;59713;50.866;4.324;2023-05-07T04:49:19;9;9;
71858;PMS5003;59713;50.866;4.324;2023-05-07T04:49:19;9;9;
71858;PMS5003;59713;50.866;4.324;2023-05-07T04:50:19;11;11;
71858;PMS5003;59713;50.866;4.324;2023-05-07T04:51:19;11;11;
71858;PMS5003;59713;50.866;4.324;2023-05-07T04:52:19;11;11;
71858;PMS5003;59713;50.866;4.324;2023-05-07T04:53:19;10;8;
71858;PMS5003;59713;50.866;4.324;2023-05-07T04:54:19;10;8;
71858;PMS5003;59713;50.866;4.324;2023-05-07T04:55:19;10;8;
71858;PMS5003;59713;50.866;4.324;2023-05-07T04:56:19;9;9;
71858;PMS5003;59713;50.866;4.324;2023-05-07T04:57:19;9;9;
71858;PMS5003;59713;50.866;4.324;2023-05-07T04:58:19;9;9;
71858;PMS5003;59713;50.866;4.324;2023-05-07T04:58:19;9;9;
71858;PMS5003;59713;50.866;4.324;2023-05-07T04:59:19;9;7;
71858;PMS5003;59713;50.866;4.324;2023-05-07T05:00:19;9;7;
71858;PMS5003;59713;50.866;4.324;2023-05-07T05:01:19;9;7;
71858;PMS5003;59713;50.866;4.324;2023-05-07T05:02:19;11;11;
71858;PMS5003;59713;50.866;4.324;2023-05-07T05:03:19;11;11;
71858;PMS5003;59713;50.866;4.324;2023-05-07T05:04:19;11;11;
71858;PMS5003;59713;50.866;4.324;2023-05-07T05:05:19;14;9;
71858;PMS5003;59713;50.866;4.324;2023-05-07T05:06:19;14;9;
71858;PMS5003;59713;50.866;4.324;2023-05-07T05:07:19;14;9;
71858;PMS5003;59713;50.866;4.324;2023-05-07T05:07:19;14;9;
71858;PMS5003;59713;50.866;4.324;2023-05-07T05:08:19;12;9;
71858;PMS5003;59713;50.866;4.324;2023-05-07T05:09:19;12;9;
71858;PMS5003;59713;50.866;4.324;2023-05-07T05:10:21;12;9;
71858;PMS5003;59713;50.866;4.324;2023-05-07T05:11:19;10;10;
71858;PMS5003;59713;50.866;4.324;2023-05-07T05:12:19;10;10;
71858;PMS5003;59713;50.866;4.324;2023-05-07T05:13:19;10;10;
71858;PMS5003;59713;50.866;4.324;2023-05-07T05:14:19;11;8;
71858;PMS5003;59713;50.866;4.324;2023-05-07T05:15:19;11;8;
71858;PMS5003;59713;50.866;4.324;2023-05-07T05:16:19;11;8;
71858;PMS5003;59713;50.866;4.324;2023-05-07T05:16:19;11;8;
71858;PMS5003;59713;50.866;4.324;2023-05-07T05:17:19;6;6;
71858;PMS5003;59713;50.866;4.324;2023-05-07T05:18:19;6;6;
71858;PMS5003;59713;50.866;4.324;2023-05-07T05:19:19;6;6;
71858;PMS5003;59713;50.866;4.324;2023-05-07T05:20:19;11;8;
71858;PMS5003;59713;50.866;4.324;2023-05-07T05:21:19;11;8;
71858;PMS5003;59713;50.866;4.324;2023-05-07T05:22:20;11;8;
71858;PMS5003;59713;50.866;4.324;2023-05-07T05:23:19;10;10;
71858;PMS5003;59713;50.866;4.324;2023-05-07T05:24:19;10;10;
71858;PMS5003;59713;50.866;4.324;2023-05-07T05:25:19;10;10;
71858;PMS5003;59713;50.866;4.324;2023-05-07T05:25:19;10;10;
71858;PMS5003;59713;50.866;4.324;2023-05-07T05:26:19;11;11;
71858;PMS5003;59713;50.866;4.324;2023-05-07T05:27:19;11;11;
71858;PMS5003;59713;50.866;4.324;2023-05-07T05:28:19;11;11;
71858;PMS5003;59713;50.866;4.324;2023-05-07T05:29:19;13;12;
71858;PMS5003;59713;50.866;4.324;2023-05-07T05:30:19;13;12;
71858;PMS5003;59713;50.866;4.324;2023-05-07T05:31:19;13;12;
71858;PMS5003;59713;50.866;4.324;2023-05-07T05:32:19;15;9;
71858;PMS5003;59713;50.866;4.324;2023-05-07T05:33:19;15;9;
71858;PMS5003;59713;50.866;4.324;2023-05-07T05:34:19;15;9;
71858;PMS5003;59713;50.866;4.324;2023-05-07T05:34:19;15;9;
71858;PMS5003;59713;50.866;4.324;2023-05-07T05:35:19;13;11;
71858;PMS5003;59713;50.866;4.324;2023-05-07T05:36:19;13;11;
71858;PMS5003;59713;50.866;4.324;2023-05-07T05:37:19;13;11;
71858;PMS5003;59713;50.866;4.324;2023-05-07T05:38:19;15;12;
71858;PMS5003;59713;50.866;4.324;2023-05-07T05:39:19;15;12;
71858;PMS5003;59713;50.866;4.324;2023-05-07T05:40:19;15;12;
71858;PMS5003;59713;50.866;4.324;2023-05-07T05:41:19;18;16;
71858;PMS5003;59713;50.866;4.324;2023-05-07T05:42:19;18;16;
71858;PMS5003;59713;50.866;4.324;2023-05-07T05:43:19;18;16;
71858;PMS5003;59713;50.866;4.324;2023-05-07T05:43:19;18;16;
71858;PMS5003;59713;50.866;4.324;2023-05-07T05:44:19;15;14;
71858;PMS5003;59713;50.866;4.324;2023-05-07T05:45:19;15;14;
71858;PMS5003;59713;50.866;4.324;2023-05-07T05:46:19;15;14;
71858;PMS5003;59713;50.866;4.324;2023-05-07T05:47:19;12;9;
71858;PMS5003;59713;50.866;4.324;2023-05-07T05:48:19;12;9;
71858;PMS5003;59713;50.866;4.324;2023-05-07T05:49:19;12;9;
71858;PMS5003;59713;50.866;4.324;2023-05-07T05:50:19;10;10;
71858;PMS5003;59713;50.866;4.324;2023-05-07T05:51:20;10;10;
71858;PMS5003;59713;50.866;4.324;2023-05-07T05:52:19;10;10;
71858;PMS5003;59713;50.866;4.324;2023-05-07T05:52:19;10;10;
71858;PMS5003;59713;50.866;4.324;2023-05-07T05:53:19;10;10;
71858;PMS5003;59713;50.866;4.324;2023-05-07T05:54:19;10;10;
71858;PMS5003;59713;50.866;4.324;2023-05-07T05:55:20;10;10;
71858;PMS5003;59713;50.866;4.324;2023-05-07T05:56:19;9;8;
71858;PMS5003;59713;50.866;4.324;2023-05-07T05:57:19;9;8;
71858;PMS5003;59713;50.866;4.324;2023-05-07T05:58:19;9;8;
71858;PMS5003;59713;50.866;4.324;2023-05-07T05:59:19;8;8;
71858;PMS5003;59713;50.866;4.324;2023-05-07T06:00:19;8;8;
71858;PMS5003;59713;50.866;4.324;2023-05-07T06:01:19;8;8;
71858;PMS5003;59713;50.866;4.324;2023-05-07T06:01:19;8;8;
71858;PMS5003;59713;50.866;4.324;2023-05-07T06:02:19;12;12;
71858;PMS5003;59713;50.866;4.324;2023-05-07T06:03:19;12;12;
71858;PMS5003;59713;50.866;4.324;2023-05-07T06:04:19;12;12;
71858;PMS5003;59713;50.866;4.324;2023-05-07T06:05:19;11;8;
71858;PMS5003;59713;50.866;4.324;2023-05-07T06:06:19;11;8;
71858;PMS5003;59713;50.866;4.324;2023-05-07T06:07:19;11;8;
71858;PMS5003;59713;50.866;4.324;2023-05-07T06:08:19;8;8;
71858;PMS5003;59713;50.866;4.324;2023-05-07T06:09:19;8;8;